Time;durP1;ratioP1;P1;durP2;ratioP2;P2;SDS_P1;SDS_P2;PMS_P1;PMS_P2;Temp;Humidity;BMP_temperature;BMP_pressure;BME280_temperature;BME280_humidity;BME280_pressure;Samples;Min_cycle;Max_cycle;Signal;HPM_P1;HPM_P2
2021/12/10 00:01:09;;;;;;;23.67;12.03;;;0.80;99.90;;;;;;5074481;28;20578;-93
2021/12/10 00:03:39;;;;;;;21.73;11.37;;;0.80;99.90;;;;;;5074570;28;20241;-94
2021/12/10 00:06:23;;;;;;;25.60;12.40;;;0.80;99.90;;;;;;5073512;28;20232;-94
2021/12/10 00:08:56;;;;;;;23.73;11.70;;;0.80;99.90;;;;;;5074787;28;20176;-94
2021/12/10 00:11:35;;;;;;;21.17;11.50;;;0.80;99.90;;;;;;5074591;28;20270;-95
2021/12/10 00:14:01;;;;;;;26.90;11.33;;;0.80;99.90;;;;;;5074973;28;20618;-94
2021/12/10 00:16:27;;;;;;;21.70;11.77;;;0.70;99.90;;;;;;5074486;28;20211;-94
2021/12/10 00:19:06;;;;;;;22.83;11.47;;;0.80;99.90;;;;;;5074642;28;20275;-94
2021/12/10 00:21:32;;;;;;;26.17;12.73;;;0.70;99.90;;;;;;5074279;28;20176;-95
2021/12/10 00:23:58;;;;;;;28.80;12.73;;;0.70;99.90;;;;;;5073989;28;20191;-94
2021/12/10 00:26:24;;;;;;;24.87;11.97;;;0.70;99.90;;;;;;5074508;28;20711;-94
2021/12/10 00:28:51;;;;;;;30.80;12.73;;;0.80;99.90;;;;;;5074459;28;20514;-94
2021/12/10 00:31:31;;;;;;;26.93;12.77;;;0.80;99.90;;;;;;5074280;28;20692;-95
2021/12/10 00:34:01;;;;;;;24.57;12.50;;;0.70;99.90;;;;;;5074401;28;20175;-94
2021/12/10 00:36:27;;;;;;;23.70;12.00;;;0.80;99.90;;;;;;5073980;28;20175;-94
2021/12/10 00:38:54;;;;;;;26.87;12.50;;;0.70;99.90;;;;;;5074137;28;20189;-94
2021/12/10 00:41:22;;;;;;;22.17;11.67;;;0.70;99.90;;;;;;5074249;28;20173;-95
2021/12/10 00:43:47;;;;;;;25.43;13.03;;;0.60;99.90;;;;;;5074024;28;20618;-95
2021/12/10 00:46:14;;;;;;;27.67;13.00;;;0.70;99.90;;;;;;5074020;28;20210;-96
2021/12/10 00:48:39;;;;;;;29.30;13.73;;;0.70;99.90;;;;;;5074345;28;20185;-96
2021/12/10 00:51:07;;;;;;;30.43;14.03;;;0.70;99.90;;;;;;5073801;28;20177;-96
2021/12/10 00:53:34;;;;;;;28.70;13.70;;;0.80;99.90;;;;;;5074036;28;20702;-95
2021/12/10 00:56:01;;;;;;;26.80;13.83;;;0.80;99.90;;;;;;5073678;28;20177;-95
2021/12/10 00:58:27;;;;;;;27.23;12.70;;;0.80;99.90;;;;;;5073897;28;20173;-94
2021/12/10 01:00:57;;;;;;;31.17;13.77;;;0.90;99.90;;;;;;5073778;28;20180;-95
2021/12/10 01:03:30;;;;;;;28.20;13.47;;;0.90;99.90;;;;;;5074087;28;20173;-95
2021/12/10 01:06:01;;;;;;;29.53;14.10;;;1.00;99.90;;;;;;5073368;28;20219;-96
2021/12/10 01:08:29;;;;;;;27.60;13.17;;;1.00;99.90;;;;;;5073963;28;20180;-96
2021/12/10 01:10:59;;;;;;;31.23;14.03;;;1.10;99.90;;;;;;5073635;28;20677;-95
2021/12/10 01:13:30;;;;;;;26.17;13.60;;;1.00;99.90;;;;;;5074284;28;20169;-95
2021/12/10 01:24:53;;;;;;;28.17;13.80;;;1.10;99.90;;;;;;5079332;28;20619;-96
2021/12/10 01:27:34;;;;;;;25.10;12.60;;;1.00;99.90;;;;;;5077811;28;20218;-95
2021/12/10 01:30:10;;;;;;;24.20;11.83;;;1.10;99.90;;;;;;5078210;28;20169;-96
2021/12/10 01:32:41;;;;;;;21.10;11.57;;;1.00;99.90;;;;;;5078886;28;20638;-95
2021/12/10 01:35:09;;;;;;;24.67;12.40;;;1.10;99.90;;;;;;5077268;28;20193;-96
2021/12/10 01:37:35;;;;;;;26.53;13.63;;;1.00;99.90;;;;;;5077196;28;20162;-96
2021/12/10 01:40:02;;;;;;;26.50;12.23;;;1.00;99.90;;;;;;5077325;28;20199;-96
2021/12/10 01:42:38;;;;;;;23.77;11.27;;;1.00;99.90;;;;;;5077390;28;20176;-96
2021/12/10 01:45:21;;;;;;;21.43;10.80;;;1.00;99.90;;;;;;5077297;28;20192;-95
2021/12/10 01:48:00;;;;;;;24.17;11.83;;;1.10;99.90;;;;;;5077432;28;20193;-96
2021/12/10 01:50:28;;;;;;;28.07;10.30;;;1.10;99.90;;;;;;5076952;28;20180;-96
2021/12/10 01:52:57;;;;;;;20.70;10.63;;;1.10;99.90;;;;;;5077139;28;20195;-96
2021/12/10 01:55:25;;;;;;;21.37;10.93;;;1.20;99.90;;;;;;5077000;28;20626;-96
2021/12/10 01:57:52;;;;;;;21.87;10.93;;;1.20;99.90;;;;;;5076839;28;20173;-96
2021/12/10 02:00:21;;;;;;;21.90;10.67;;;1.20;99.90;;;;;;5077236;28;20177;-96
2021/12/10 02:02:49;;;;;;;21.67;11.20;;;1.20;99.90;;;;;;5077006;28;20576;-95
2021/12/10 02:05:17;;;;;;;22.53;10.87;;;1.20;99.90;;;;;;5076755;28;20173;-96
2021/12/10 02:07:43;;;;;;;21.67;10.33;;;1.20;99.90;;;;;;5076583;28;20236;-96
2021/12/10 02:10:10;;;;;;;23.90;10.93;;;1.20;99.90;;;;;;5077030;28;20177;-95
2021/12/10 02:12:36;;;;;;;16.57;9.10;;;1.20;99.90;;;;;;5076820;28;20184;-95
2021/12/10 02:15:04;;;;;;;18.43;10.03;;;1.20;99.90;;;;;;5076740;28;20237;-95
2021/12/10 02:17:35;;;;;;;21.93;9.80;;;1.20;99.90;;;;;;5076573;28;20200;-95
2021/12/10 02:20:19;;;;;;;19.97;9.23;;;1.20;99.90;;;;;;5076563;28;20161;-95
2021/12/10 02:22:46;;;;;;;15.77;8.37;;;1.30;99.90;;;;;;5076688;28;20199;-96
2021/12/10 02:25:18;;;;;;;21.57;8.30;;;1.30;99.90;;;;;;5076962;28;20260;-95
2021/12/10 02:27:44;;;;;;;15.23;7.93;;;1.30;99.90;;;;;;5076238;28;20185;-94
2021/12/10 02:30:12;;;;;;;22.17;9.57;;;1.40;99.90;;;;;;5076447;28;20200;-95
2021/12/10 02:32:38;;;;;;;15.30;7.90;;;1.40;99.90;;;;;;5076213;28;20209;-95
2021/12/10 02:35:15;;;;;;;16.67;7.60;;;1.40;99.90;;;;;;5075656;28;20256;-96
2021/12/10 02:37:43;;;;;;;14.20;7.40;;;1.40;99.90;;;;;;5076534;28;20268;-94
2021/12/10 02:40:13;;;;;;;13.20;7.27;;;1.40;99.90;;;;;;5076271;28;20241;-95
2021/12/10 02:42:39;;;;;;;14.80;7.90;;;1.50;99.90;;;;;;5076105;28;20188;-95
2021/12/10 02:45:07;;;;;;;15.47;7.67;;;1.40;99.90;;;;;;5076218;28;20230;-95
2021/12/10 02:47:33;;;;;;;16.93;8.07;;;1.40;99.90;;;;;;5076092;28;20209;-95
2021/12/10 02:49:59;;;;;;;14.30;7.80;;;1.50;99.90;;;;;;5076390;28;20264;-95
2021/12/10 02:52:27;;;;;;;14.17;8.00;;;1.50;99.90;;;;;;5076194;28;20201;-95
2021/12/10 02:54:53;;;;;;;15.20;7.67;;;1.50;99.90;;;;;;5076155;28;20599;-95
2021/12/10 02:57:20;;;;;;;13.20;7.00;;;1.50;99.90;;;;;;5076087;28;20176;-96
2021/12/10 02:59:46;;;;;;;13.53;7.50;;;1.60;99.90;;;;;;5449952;23;20236;-93
2021/12/10 03:02:18;;;;;;;13.60;7.03;;;1.60;99.90;;;;;;4987134;28;20180;-93
2021/12/10 03:04:44;;;;;;;14.87;6.93;;;1.70;99.90;;;;;;4977498;28;20188;-93
2021/12/10 03:07:14;;;;;;;15.10;7.67;;;1.70;99.90;;;;;;4976728;28;20642;-93
2021/12/10 03:09:49;;;;;;;15.13;7.70;;;1.70;99.90;;;;;;4977348;28;20607;-93
2021/12/10 03:12:18;;;;;;;15.03;7.83;;;1.70;99.90;;;;;;4977066;28;20313;-94
2021/12/10 03:14:46;;;;;;;20.10;8.23;;;1.70;99.90;;;;;;4976708;28;20191;-94
2021/12/10 03:17:17;;;;;;;17.83;8.53;;;1.60;99.90;;;;;;4976767;28;20180;-93
2021/12/10 03:19:48;;;;;;;17.13;9.30;;;1.70;99.90;;;;;;4976619;28;20327;-94
2021/12/10 03:22:14;;;;;;;17.83;9.43;;;1.60;99.90;;;;;;4976813;28;20187;-94
2021/12/10 03:24:39;;;;;;;16.60;9.40;;;1.60;99.90;;;;;;4976971;28;20180;-95
2021/12/10 03:27:08;;;;;;;17.47;9.23;;;1.60;99.90;;;;;;4976381;28;20279;-94
2021/12/10 03:29:36;;;;;;;18.73;9.63;;;1.60;99.90;;;;;;4976348;28;20189;-95
2021/12/10 03:32:06;;;;;;;16.37;9.33;;;1.60;99.90;;;;;;4992570;28;20630;-94
2021/12/10 03:34:35;;;;;;;20.40;8.97;;;1.60;99.90;;;;;;4992720;28;20189;-94
2021/12/10 03:37:02;;;;;;;17.60;9.10;;;1.60;99.90;;;;;;4992628;28;20175;-93
2021/12/10 03:39:33;;;;;;;18.47;9.60;;;1.60;99.90;;;;;;4992267;28;20234;-93
2021/12/10 03:41:59;;;;;;;18.33;8.87;;;1.60;99.90;;;;;;4992285;28;20184;-93
2021/12/10 03:44:25;;;;;;;17.53;9.13;;;1.60;99.90;;;;;;4992636;28;20220;-92
2021/12/10 03:46:53;;;;;;;17.53;8.83;;;1.60;99.90;;;;;;4992431;28;20219;-93
2021/12/10 03:49:21;;;;;;;15.03;8.83;;;1.60;99.90;;;;;;4992386;28;20524;-92
2021/12/10 03:51:47;;;;;;;15.53;9.20;;;1.60;99.90;;;;;;4992388;28;20180;-94
2021/12/10 03:54:16;;;;;;;14.60;7.30;;;1.60;99.90;;;;;;4992004;28;20188;-93
2021/12/10 03:56:42;;;;;;;14.80;7.67;;;1.60;99.90;;;;;;4992179;28;20176;-92
2021/12/10 03:59:12;;;;;;;14.87;8.20;;;1.70;99.90;;;;;;4994902;28;20744;-94
2021/12/10 04:01:42;;;;;;;11.50;6.63;;;1.70;99.90;;;;;;4995377;28;20212;-95
2021/12/10 04:04:14;;;;;;;14.70;7.93;;;1.70;99.90;;;;;;4995329;28;20175;-93
2021/12/10 04:06:40;;;;;;;15.10;7.10;;;1.70;99.90;;;;;;4995357;28;20262;-94
2021/12/10 04:09:06;;;;;;;12.60;6.57;;;1.80;99.90;;;;;;4995702;28;20185;-94
2021/12/10 04:11:33;;;;;;;13.53;7.17;;;1.70;99.90;;;;;;4995575;28;20175;-93
2021/12/10 04:13:59;;;;;;;15.20;6.53;;;1.80;99.90;;;;;;4995742;28;20180;-94
2021/12/10 04:16:27;;;;;;;11.33;5.90;;;1.80;99.90;;;;;;4995540;28;20180;-94
2021/12/10 04:18:55;;;;;;;14.10;6.80;;;1.80;99.90;;;;;;4995656;28;20235;-93
2021/12/10 04:21:21;;;;;;;11.50;6.57;;;1.80;99.90;;;;;;4995076;28;20180;-94
2021/12/10 04:23:49;;;;;;;17.07;6.53;;;1.80;99.90;;;;;;4994961;28;20168;-94
2021/12/10 04:26:17;;;;;;;14.97;7.47;;;1.80;99.90;;;;;;4994875;28;20215;-94
2021/12/10 04:28:43;;;;;;;15.87;8.40;;;1.80;99.90;;;;;;4994886;28;20270;-93
2021/12/10 04:31:10;;;;;;;16.03;8.40;;;1.80;99.90;;;;;;5011230;28;20179;-94
2021/12/10 04:33:36;;;;;;;19.77;9.80;;;1.70;99.90;;;;;;5011395;28;20207;-93
2021/12/10 04:36:03;;;;;;;21.10;11.17;;;1.70;99.90;;;;;;5011317;28;20179;-94
2021/12/10 04:38:33;;;;;;;23.23;11.90;;;1.70;99.90;;;;;;4994584;28;20187;-94
2021/12/10 04:41:01;;;;;;;25.03;13.17;;;1.70;99.90;;;;;;4995215;28;20184;-93
2021/12/10 04:43:28;;;;;;;22.90;12.60;;;1.70;99.90;;;;;;4995046;28;20226;-94
2021/12/10 04:45:57;;;;;;;33.87;15.77;;;1.60;99.90;;;;;;4994741;28;20526;-93
2021/12/10 04:48:25;;;;;;;30.33;15.67;;;1.50;99.90;;;;;;4994834;28;20187;-94
2021/12/10 04:50:51;;;;;;;31.57;16.47;;;1.50;99.90;;;;;;4994888;28;20183;-94
2021/12/10 04:53:18;;;;;;;29.50;15.63;;;1.50;99.90;;;;;;4994788;28;20206;-94
2021/12/10 04:55:43;;;;;;;33.43;16.40;;;1.40;99.90;;;;;;4994524;28;20199;-93
2021/12/10 04:58:11;;;;;;;32.20;16.30;;;1.40;99.90;;;;;;4994737;28;20203;-94
2021/12/10 05:00:44;;;;;;;32.93;16.00;;;1.30;99.90;;;;;;4994318;28;20297;-93
2021/12/10 05:03:11;;;;;;;36.40;18.17;;;1.30;99.90;;;;;;4994610;28;20187;-94
2021/12/10 05:05:38;;;;;;;35.00;16.20;;;1.30;99.90;;;;;;4994362;28;20186;-93
2021/12/10 05:08:04;;;;;;;30.77;16.17;;;1.30;99.90;;;;;;4994574;28;20187;-94
2021/12/10 05:10:30;;;;;;;29.30;15.50;;;1.30;99.90;;;;;;4994328;28;20178;-94
2021/12/10 05:12:56;;;;;;;34.87;16.60;;;1.30;99.90;;;;;;4994546;28;20271;-94
2021/12/10 05:15:25;;;;;;;36.47;17.70;;;1.30;99.90;;;;;;4994530;28;20203;-93
2021/12/10 05:17:52;;;;;;;32.03;17.70;;;1.30;99.90;;;;;;4994384;28;20180;-94
2021/12/10 05:20:31;;;;;;;33.20;16.33;;;1.20;99.90;;;;;;4994419;28;20176;-94
2021/12/10 05:22:57;;;;;;;32.93;17.30;;;1.20;99.90;;;;;;4994634;28;20206;-94
2021/12/10 05:25:26;;;;;;;28.87;16.50;;;1.20;99.90;;;;;;4994459;28;20176;-93
2021/12/10 05:27:52;;;;;;;38.97;17.30;;;1.20;99.90;;;;;;4994609;28;20606;-93
2021/12/10 05:30:21;;;;;;;32.07;15.80;;;1.20;99.90;;;;;;4994197;28;20190;-94
2021/12/10 05:32:47;;;;;;;33.50;15.83;;;1.20;99.90;;;;;;4994183;28;20287;-93
2021/12/10 05:35:12;;;;;;;36.30;17.77;;;1.10;99.90;;;;;;4994505;28;20629;-94
2021/12/10 05:37:39;;;;;;;33.53;16.50;;;1.20;99.90;;;;;;4994041;28;20188;-94
2021/12/10 05:40:07;;;;;;;35.40;16.87;;;1.20;99.90;;;;;;4994446;28;20184;-93
2021/12/10 05:42:32;;;;;;;33.43;16.23;;;1.10;99.90;;;;;;4994454;28;20256;-94
2021/12/10 05:44:58;;;;;;;31.17;15.80;;;1.10;99.90;;;;;;4994466;28;20622;-94
2021/12/10 05:47:24;;;;;;;30.67;15.87;;;1.10;99.90;;;;;;4993483;28;20224;-92
2021/12/10 05:49:50;;;;;;;33.70;16.93;;;1.10;99.90;;;;;;4994464;28;20220;-93
2021/12/10 05:52:15;;;;;;;32.43;16.57;;;1.10;99.90;;;;;;4993913;28;20615;-94
2021/12/10 05:54:43;;;;;;;31.03;16.90;;;1.10;99.90;;;;;;4993228;28;20595;-92
2021/12/10 05:57:10;;;;;;;30.53;15.50;;;1.10;99.90;;;;;;4987990;28;20230;-92
2021/12/10 05:59:36;;;;;;;32.63;15.70;;;1.10;99.90;;;;;;4993313;28;20283;-92
2021/12/10 06:02:03;;;;;;;29.43;14.90;;;1.10;99.90;;;;;;4993945;28;20697;-95
2021/12/10 06:04:30;;;;;;;32.43;15.67;;;1.10;99.90;;;;;;4996630;28;20268;-91
2021/12/10 06:06:56;;;;;;;29.10;15.37;;;1.00;99.90;;;;;;4996417;28;20213;-94
2021/12/10 06:09:23;;;;;;;27.90;15.57;;;1.10;99.90;;;;;;4998486;28;20295;-95
2021/12/10 06:11:49;;;;;;;28.13;15.17;;;1.10;99.90;;;;;;4998633;28;20184;-95
2021/12/10 06:14:15;;;;;;;31.23;15.90;;;1.00;99.90;;;;;;4998635;28;20183;-94
2021/12/10 06:16:41;;;;;;;28.70;14.37;;;1.00;99.90;;;;;;4998161;28;20187;-94
2021/12/10 06:19:07;;;;;;;27.40;14.53;;;1.00;99.90;;;;;;4998910;28;20534;-95
2021/12/10 06:21:35;;;;;;;27.70;14.63;;;1.00;99.90;;;;;;4998611;28;20180;-95
2021/12/10 06:24:01;;;;;;;34.00;15.97;;;1.00;99.90;;;;;;4999250;28;20220;-94
2021/12/10 06:26:27;;;;;;;25.30;13.47;;;1.00;99.90;;;;;;4998274;28;20222;-95
2021/12/10 06:28:53;;;;;;;29.53;14.93;;;1.00;99.90;;;;;;4997876;28;20180;-95
2021/12/10 06:31:21;;;;;;;30.67;14.77;;;1.00;99.90;;;;;;4996618;28;20282;-94
2021/12/10 06:33:48;;;;;;;25.30;13.70;;;1.10;99.90;;;;;;5013749;28;20176;-94
2021/12/10 06:36:15;;;;;;;27.13;13.53;;;1.10;99.90;;;;;;5013375;28;20695;-95
2021/12/10 06:38:42;;;;;;;25.47;13.83;;;1.10;99.90;;;;;;4997561;28;20204;-95
2021/12/10 06:41:09;;;;;;;26.43;13.67;;;1.10;99.90;;;;;;4997389;28;20177;-95
2021/12/10 06:43:37;;;;;;;23.67;12.70;;;1.10;99.90;;;;;;4997424;28;20180;-94
2021/12/10 06:46:06;;;;;;;25.20;13.90;;;1.10;99.90;;;;;;4996479;28;20203;-94
2021/12/10 06:48:32;;;;;;;26.77;13.13;;;1.10;99.90;;;;;;4996774;28;20180;-94
2021/12/10 06:51:02;;;;;;;27.67;12.17;;;1.10;99.90;;;;;;4996672;28;20530;-95
2021/12/10 06:53:29;;;;;;;19.77;9.80;;;1.10;99.90;;;;;;4997028;28;20191;-95
2021/12/10 06:55:56;;;;;;;18.93;10.20;;;1.20;99.90;;;;;;5007245;28;20184;-95
2021/12/10 06:58:23;;;;;;;20.67;9.80;;;1.20;99.90;;;;;;4996805;28;20179;-95
2021/12/10 07:00:55;;;;;;;18.50;9.90;;;1.20;99.90;;;;;;4996082;28;20239;-94
2021/12/10 07:03:26;;;;;;;20.03;9.43;;;1.20;99.90;;;;;;4996069;28;20209;-95
2021/12/10 07:05:53;;;;;;;17.87;9.13;;;1.20;99.90;;;;;;4997242;28;20207;-94
2021/12/10 07:08:22;;;;;;;20.73;9.07;;;1.30;99.90;;;;;;4996531;28;20179;-94
2021/12/10 07:10:48;;;;;;;17.67;8.97;;;1.30;99.90;;;;;;4996868;28;20179;-95
2021/12/10 07:13:15;;;;;;;17.07;8.57;;;1.30;99.90;;;;;;4996813;28;20184;-94
2021/12/10 07:15:44;;;;;;;21.50;9.93;;;1.30;99.90;;;;;;4996110;28;20191;-95
2021/12/10 07:18:10;;;;;;;18.90;9.43;;;1.30;99.90;;;;;;4997080;28;20235;-95
2021/12/10 07:20:38;;;;;;;17.90;9.80;;;1.30;99.90;;;;;;4996561;28;20187;-93
2021/12/10 07:23:04;;;;;;;22.23;10.23;;;1.30;99.90;;;;;;4996604;28;20176;-92
2021/12/10 07:25:29;;;;;;;17.37;8.97;;;1.30;99.90;;;;;;4997509;28;20187;-91
2021/12/10 07:27:55;;;;;;;15.70;8.40;;;1.30;99.90;;;;;;4996627;28;20188;-93
2021/12/10 07:30:24;;;;;;;18.03;8.47;;;1.30;99.90;;;;;;4996320;28;20215;-91
2021/12/10 07:32:50;;;;;;;15.33;7.53;;;1.30;99.90;;;;;;4996457;28;20194;-91
2021/12/10 07:35:16;;;;;;;15.37;8.13;;;1.30;99.90;;;;;;5012832;28;20172;-92
2021/12/10 07:37:42;;;;;;;16.43;7.97;;;1.30;99.90;;;;;;5015283;28;20171;-92
2021/12/10 07:40:11;;;;;;;16.20;8.67;;;1.30;99.90;;;;;;5014190;28;20195;-92
2021/12/10 07:42:37;;;;;;;14.80;8.27;;;1.40;99.90;;;;;;5014988;28;20185;-92
2021/12/10 07:45:06;;;;;;;15.10;8.60;;;1.30;99.90;;;;;;5015037;28;20184;-92
2021/12/10 07:47:35;;;;;;;15.63;8.77;;;1.30;99.90;;;;;;4996836;28;20286;-92
2021/12/10 07:50:07;;;;;;;14.57;7.97;;;1.30;99.90;;;;;;4999038;28;20266;-92
2021/12/10 07:52:34;;;;;;;14.23;7.50;;;1.40;99.90;;;;;;5000474;28;20180;-91
2021/12/10 07:55:03;;;;;;;15.00;8.23;;;1.40;99.90;;;;;;4996057;28;20263;-91
2021/12/10 07:57:29;;;;;;;13.90;7.90;;;1.40;99.90;;;;;;5000022;28;20178;-92
2021/12/10 07:59:59;;;;;;;15.17;8.30;;;1.40;99.90;;;;;;5003613;28;20235;-95
2021/12/10 08:02:25;;;;;;;15.73;8.30;;;1.40;99.90;;;;;;5021575;28;20193;-95
2021/12/10 08:04:51;;;;;;;16.57;8.33;;;1.40;99.90;;;;;;5023339;28;20182;-94
2021/12/10 08:07:17;;;;;;;15.20;8.27;;;1.40;99.90;;;;;;5022841;28;20666;-94
2021/12/10 08:09:44;;;;;;;14.23;8.10;;;1.50;99.90;;;;;;5023144;28;20588;-94
2021/12/10 08:12:11;;;;;;;13.20;7.57;;;1.50;99.90;;;;;;5023079;28;20188;-95
2021/12/10 08:14:37;;;;;;;14.53;8.03;;;1.50;99.90;;;;;;5019701;28;20293;-95
2021/12/10 08:17:04;;;;;;;12.33;7.70;;;1.50;99.90;;;;;;5015148;28;20179;-94
2021/12/10 08:19:30;;;;;;;13.53;7.30;;;1.50;99.90;;;;;;5013578;28;20526;-95
2021/12/10 08:21:56;;;;;;;13.23;8.83;;;1.50;99.90;;;;;;5012934;28;20179;-95
2021/12/10 08:24:22;;;;;;;17.40;10.27;;;1.50;99.90;;;;;;5013026;28;20177;-96
2021/12/10 08:26:48;;;;;;;19.80;10.17;;;1.50;99.90;;;;;;4995368;28;20589;-94
2021/12/10 08:29:16;;;;;;;18.83;9.60;;;1.50;99.90;;;;;;4995869;28;20180;-94
2021/12/10 08:31:55;;;;;;;17.03;10.43;;;1.50;99.90;;;;;;5012814;28;20186;-96
2021/12/10 08:34:21;;;;;;;17.93;10.87;;;1.50;99.90;;;;;;4996462;28;20178;-95
2021/12/10 08:36:47;;;;;;;22.40;10.87;;;1.40;99.90;;;;;;4995432;28;20175;-94
2021/12/10 08:39:13;;;;;;;19.27;10.97;;;1.30;99.90;;;;;;4996504;28;20180;-95
2021/12/10 08:41:40;;;;;;;19.57;9.87;;;1.30;99.90;;;;;;4995561;28;20182;-95
2021/12/10 08:44:08;;;;;;;17.30;10.20;;;1.30;99.90;;;;;;4995667;28;20182;-92
2021/12/10 08:46:35;;;;;;;18.10;10.93;;;1.20;99.90;;;;;;4994536;28;20804;-94
2021/12/10 08:49:01;;;;;;;20.23;10.40;;;1.20;99.90;;;;;;4995451;28;20164;-92
2021/12/10 08:51:33;;;;;;;19.47;10.97;;;1.20;99.90;;;;;;4995866;28;20254;-93
2021/12/10 08:54:00;;;;;;;18.17;10.60;;;1.20;99.90;;;;;;4993018;28;20698;-93
2021/12/10 08:56:26;;;;;;;18.77;10.63;;;1.20;99.90;;;;;;4995147;28;20523;-93
2021/12/10 08:58:52;;;;;;;19.17;10.20;;;1.30;99.90;;;;;;4995807;28;20235;-93
2021/12/10 09:01:24;;;;;;;20.40;10.63;;;1.30;99.90;;;;;;4995069;28;20519;-94
2021/12/10 09:03:54;;;;;;;18.23;11.20;;;1.30;99.90;;;;;;4995119;28;20183;-93
2021/12/10 09:06:24;;;;;;;22.30;10.60;;;1.30;99.90;;;;;;4995820;28;20227;-93
2021/12/10 09:08:51;;;;;;;19.60;11.03;;;1.30;99.90;;;;;;4995044;28;20209;-93
2021/12/10 09:11:17;;;;;;;17.50;10.60;;;1.30;99.90;;;;;;4995217;28;20180;-93
2021/12/10 09:13:43;;;;;;;14.90;10.30;;;1.30;99.90;;;;;;4995833;28;20195;-93
2021/12/10 09:16:18;;;;;;;18.77;10.83;;;1.40;99.90;;;;;;4996114;28;20635;-93
2021/12/10 09:18:45;;;;;;;19.07;10.33;;;1.40;99.90;;;;;;4995376;28;20229;-93
2021/12/10 09:21:10;;;;;;;16.90;9.57;;;1.40;99.90;;;;;;4995471;28;20188;-94
2021/12/10 09:23:37;;;;;;;19.00;9.90;;;1.30;99.90;;;;;;4994750;28;20248;-93
2021/12/10 09:26:07;;;;;;;18.23;10.10;;;1.40;99.90;;;;;;4995439;28;20708;-93
2021/12/10 09:28:35;;;;;;;17.77;10.57;;;1.40;99.90;;;;;;4995593;28;20202;-92
2021/12/10 09:31:01;;;;;;;19.43;11.47;;;1.40;99.90;;;;;;4994737;28;20184;-93
2021/12/10 09:33:28;;;;;;;16.70;10.63;;;1.30;99.90;;;;;;4995432;28;20187;-93
2021/12/10 09:35:55;;;;;;;22.13;10.80;;;1.30;99.90;;;;;;4995342;28;20233;-94
2021/12/10 09:38:24;;;;;;;18.27;10.73;;;1.30;99.90;;;;;;4995870;28;20198;-92
2021/12/10 09:40:53;;;;;;;18.40;10.70;;;1.30;99.90;;;;;;4998935;28;20284;-92
2021/12/10 09:43:20;;;;;;;19.77;10.83;;;1.30;99.90;;;;;;4998581;28;20215;-92
2021/12/10 09:45:46;;;;;;;21.20;11.27;;;1.30;99.90;;;;;;4998489;28;20633;-92
2021/12/10 09:48:15;;;;;;;18.30;10.83;;;1.30;99.90;;;;;;4998699;28;20320;-92
2021/12/10 09:50:55;;;;;;;20.50;11.37;;;1.30;99.90;;;;;;4998620;28;20189;-91
2021/12/10 09:53:24;;;;;;;20.27;10.97;;;1.40;99.90;;;;;;4998193;28;20172;-95
2021/12/10 09:55:50;;;;;;;21.20;11.10;;;1.40;99.90;;;;;;4999426;28;20173;-93
2021/12/10 09:58:18;;;;;;;17.43;11.27;;;1.50;99.90;;;;;;4998805;28;20179;-96
2021/12/10 10:00:51;;;;;;;22.87;12.03;;;1.50;99.90;;;;;;4997483;28;20243;-95
2021/12/10 10:03:24;;;;;;;17.27;11.37;;;1.50;99.90;;;;;;4999217;28;20175;-96
2021/12/10 10:05:50;;;;;;;19.70;10.07;;;1.60;99.90;;;;;;4999011;28;20208;-96
2021/12/10 10:08:22;;;;;;;20.43;11.83;;;1.60;99.90;;;;;;4998578;28;20207;-95
2021/12/10 10:10:52;;;;;;;19.90;11.33;;;1.60;99.90;;;;;;4998511;28;20180;-95
2021/12/10 10:13:23;;;;;;;20.10;11.70;;;1.60;99.90;;;;;;4998703;28;20176;-96
2021/12/10 10:15:50;;;;;;;18.80;11.63;;;1.70;99.90;;;;;;4997840;28;20172;-95
2021/12/10 10:18:20;;;;;;;22.20;12.40;;;1.70;99.90;;;;;;4998800;28;20188;-94
2021/12/10 10:20:50;;;;;;;21.80;11.57;;;1.80;99.90;;;;;;4997999;28;20190;-95
2021/12/10 10:23:17;;;;;;;21.70;11.90;;;1.90;99.90;;;;;;4997964;28;20176;-95
2021/12/10 10:25:47;;;;;;;21.43;11.37;;;1.90;99.90;;;;;;4998118;28;20190;-95
2021/12/10 10:28:14;;;;;;;20.77;11.93;;;1.90;99.90;;;;;;4998052;28;20211;-95
2021/12/10 10:30:54;;;;;;;22.93;12.00;;;1.80;99.90;;;;;;4997450;28;20677;-95
2021/12/10 10:33:21;;;;;;;19.33;11.83;;;1.70;99.90;;;;;;4998471;28;20183;-96
2021/12/10 10:35:53;;;;;;;24.73;12.63;;;1.70;99.90;;;;;;4997747;28;20176;-95
2021/12/10 10:38:20;;;;;;;25.80;14.53;;;1.70;99.90;;;;;;4997980;28;20273;-94
2021/12/10 10:41:04;;;;;;;20.13;13.47;;;1.60;99.90;;;;;;4998507;28;20184;-96
2021/12/10 10:43:30;;;;;;;24.40;15.07;;;1.60;99.90;;;;;;4997188;28;20607;-96
2021/12/10 10:45:57;;;;;;;21.73;14.03;;;1.50;99.90;;;;;;4997621;28;20215;-95
2021/12/10 10:48:24;;;;;;;24.47;13.83;;;1.50;99.90;;;;;;4998137;28;20180;-95
2021/12/10 10:51:09;;;;;;;23.17;14.27;;;1.50;99.90;;;;;;4996508;28;20529;-96
2021/12/10 10:53:44;;;;;;;26.17;15.00;;;1.50;99.90;;;;;;4997205;28;20186;-95
2021/12/10 10:56:14;;;;;;;23.77;13.73;;;1.60;99.90;;;;;;4995139;28;20187;-96
2021/12/10 10:58:44;;;;;;;23.13;13.70;;;1.60;99.90;;;;;;4995781;28;20182;-95
2021/12/10 11:01:28;;;;;;;26.13;14.53;;;1.70;99.90;;;;;;4977708;28;20274;-96
2021/12/10 11:04:00;;;;;;;22.57;13.80;;;1.80;99.90;;;;;;4978737;28;20172;-95
2021/12/10 11:06:38;;;;;;;21.87;14.23;;;1.80;99.90;;;;;;4996661;28;20207;-95
2021/12/10 11:09:23;;;;;;;24.10;13.97;;;1.80;99.90;;;;;;5008385;28;20179;-93
2021/12/10 11:11:54;;;;;;;25.50;13.77;;;1.90;99.90;;;;;;4987678;28;20173;-94
2021/12/10 11:14:37;;;;;;;22.03;13.60;;;1.90;99.90;;;;;;4980457;28;20192;-95
2021/12/10 11:17:08;;;;;;;28.20;16.03;;;1.90;99.90;;;;;;4977210;28;20673;-93
2021/12/10 11:19:35;;;;;;;28.23;15.80;;;1.90;99.90;;;;;;4978336;28;20510;-94
2021/12/10 11:22:08;;;;;;;28.87;15.83;;;1.90;99.90;;;;;;4978458;28;20180;-94
2021/12/10 11:24:38;;;;;;;26.77;14.37;;;1.90;99.90;;;;;;4977840;28;20315;-94
2021/12/10 11:27:08;;;;;;;25.20;14.73;;;1.90;99.90;;;;;;4977454;28;20219;-94
2021/12/10 11:29:55;;;;;;;25.37;15.37;;;1.80;99.90;;;;;;4984720;28;20222;-93
2021/12/10 11:32:27;;;;;;;32.03;15.47;;;1.90;99.90;;;;;;5013063;28;20272;-94
2021/12/10 11:34:54;;;;;;;26.30;15.13;;;1.90;99.90;;;;;;5013007;28;20608;-94
2021/12/10 11:37:51;;;;;;;28.60;17.10;;;1.90;99.90;;;;;;5012882;28;20187;-93
2021/12/10 11:40:39;;;;;;;29.40;17.03;;;1.90;99.90;;;;;;4997007;28;20179;-93
2021/12/10 11:43:20;;;;;;;30.97;15.97;;;2.00;99.90;;;;;;4997063;28;20183;-94
2021/12/10 11:46:05;;;;;;;26.50;16.07;;;2.00;99.90;;;;;;5012775;28;20623;-93
2021/12/10 11:48:38;;;;;;;35.67;16.27;;;2.00;99.90;;;;;;4996757;28;20525;-94
2021/12/10 11:51:09;;;;;;;27.33;16.10;;;2.10;99.90;;;;;;4996595;28;20189;-94
2021/12/10 11:53:59;;;;;;;27.20;15.50;;;2.10;99.90;;;;;;5012675;28;20673;-94
2021/12/10 11:56:41;;;;;;;24.83;15.30;;;2.20;99.90;;;;;;4996484;28;20238;-94
2021/12/10 11:59:23;;;;;;;27.73;16.10;;;2.20;99.90;;;;;;4996121;28;20701;-94
2021/12/10 12:01:56;;;;;;;29.67;14.90;;;2.20;99.90;;;;;;4994347;28;20527;-94
2021/12/10 12:04:53;;;;;;;25.70;15.30;;;2.20;99.90;;;;;;4996701;28;20458;-94
2021/12/10 12:07:19;;;;;;;25.90;15.50;;;2.30;99.90;;;;;;4996310;28;20230;-94
2021/12/10 12:09:52;;;;;;;34.07;17.93;;;2.30;99.90;;;;;;4996386;28;20184;-94
2021/12/10 12:12:25;;;;;;;28.97;16.47;;;2.40;99.90;;;;;;4996108;28;20180;-94
2021/12/10 12:14:54;;;;;;;29.37;16.63;;;2.40;99.90;;;;;;5013321;28;20199;-94
2021/12/10 12:17:35;;;;;;;29.37;15.90;;;2.40;99.90;;;;;;4995557;28;20180;-95
2021/12/10 12:20:03;;;;;;;26.40;15.47;;;2.40;99.90;;;;;;4994931;28;20198;-94
2021/12/10 12:25:26;;;;;;;25.60;15.10;;;2.40;99.90;;;;;;4997021;28;20555;-94
2021/12/10 12:28:08;;;;;;;26.17;15.83;;;2.40;99.90;;;;;;4995197;28;20234;-94
2021/12/10 12:30:48;;;;;;;28.33;15.73;;;2.40;99.90;;;;;;4995338;28;20218;-94
2021/12/10 12:33:13;;;;;;;26.73;15.97;;;2.50;99.90;;;;;;4996238;28;20641;-95
2021/12/10 12:35:39;;;;;;;23.97;14.40;;;2.50;99.90;;;;;;4995432;28;20176;-95
2021/12/10 12:38:08;;;;;;;28.70;15.17;;;2.40;99.90;;;;;;4995565;28;20607;-95
2021/12/10 12:40:34;;;;;;;26.00;15.73;;;2.40;99.90;;;;;;4995865;28;20208;-95
2021/12/10 12:43:04;;;;;;;23.80;16.70;;;2.40;99.90;;;;;;4995262;28;20605;-94
2021/12/10 12:45:31;;;;;;;26.67;16.63;;;2.40;99.90;;;;;;4994531;28;20211;-95
2021/12/10 12:47:58;;;;;;;30.87;17.03;;;2.40;99.90;;;;;;4994584;28;20206;-95
2021/12/10 12:50:27;;;;;;;33.70;18.77;;;2.30;99.90;;;;;;4995446;28;20183;-94
2021/12/10 12:53:00;;;;;;;30.60;17.87;;;2.30;99.90;;;;;;4996071;28;20195;-94
2021/12/10 12:56:05;;;;;;;24.73;16.47;;;2.30;99.90;;;;;;4995592;28;20177;-94
2021/12/10 12:58:41;;;;;;;29.13;17.80;;;2.30;99.90;;;;;;4995727;28;20185;-94
2021/12/10 13:01:26;;;;;;;29.50;18.10;;;2.30;99.90;;;;;;4995548;28;20518;-96
2021/12/10 13:04:08;;;;;;;32.70;19.03;;;2.30;99.90;;;;;;4995871;28;20183;-95